sensor_id;sensor_type;location;lat;lon;timestamp;P1;durP1;ratioP1;P2;durP2;ratioP2
69910;SDS011;63555;49.920;17.868;2023-02-13T00:03:06;37.65;;;13.10;;
69910;SDS011;63555;49.920;17.868;2023-02-13T00:08:07;33.57;;;11.80;;
69910;SDS011;63555;49.920;17.868;2023-02-13T00:13:07;39.38;;;11.95;;
69910;SDS011;63555;49.920;17.868;2023-02-13T00:18:07;31.73;;;10.53;;
69910;SDS011;63555;49.920;17.868;2023-02-13T00:23:08;30.85;;;10.60;;
69910;SDS011;63555;49.920;17.868;2023-02-13T00:28:08;33.17;;;10.40;;
69910;SDS011;63555;49.920;17.868;2023-02-13T00:33:08;37.73;;;9.83;;
69910;SDS011;63555;49.920;17.868;2023-02-13T00:38:09;31.43;;;10.77;;
69910;SDS011;63555;49.920;17.868;2023-02-13T00:43:09;33.97;;;10.03;;
69910;SDS011;63555;49.920;17.868;2023-02-13T00:48:09;30.87;;;9.73;;
69910;SDS011;63555;49.920;17.868;2023-02-13T00:53:10;27.10;;;10.50;;
69910;SDS011;63555;49.920;17.868;2023-02-13T00:58:10;27.17;;;9.77;;
69910;SDS011;63555;49.920;17.868;2023-02-13T01:03:10;26.33;;;9.90;;
69910;SDS011;63555;49.920;17.868;2023-02-13T01:08:11;34.33;;;9.87;;
69910;SDS011;63555;49.920;17.868;2023-02-13T01:13:13;41.70;;;12.17;;
69910;SDS011;63555;49.920;17.868;2023-02-13T01:18:15;29.23;;;10.73;;
69910;SDS011;63555;49.920;17.868;2023-02-13T01:23:17;33.97;;;10.75;;
69910;SDS011;63555;49.920;17.868;2023-02-13T01:28:17;34.17;;;11.30;;
69910;SDS011;63555;49.920;17.868;2023-02-13T01:33:18;38.43;;;12.13;;
69910;SDS011;63555;49.920;17.868;2023-02-13T01:38:18;31.45;;;10.70;;
69910;SDS011;63555;49.920;17.868;2023-02-13T01:43:19;40.93;;;10.87;;
69910;SDS011;63555;49.920;17.868;2023-02-13T01:48:22;33.77;;;10.43;;
69910;SDS011;63555;49.920;17.868;2023-02-13T01:53:30;31.58;;;10.95;;
69910;SDS011;63555;49.920;17.868;2023-02-13T01:58:35;32.10;;;10.45;;
69910;SDS011;63555;49.920;17.868;2023-02-13T02:03:39;32.33;;;10.47;;
69910;SDS011;63555;49.920;17.868;2023-02-13T02:08:45;30.00;;;9.85;;
69910;SDS011;63555;49.920;17.868;2023-02-13T02:13:48;22.37;;;7.93;;
69910;SDS011;63555;49.920;17.868;2023-02-13T02:18:49;21.17;;;7.55;;
69910;SDS011;63555;49.920;17.868;2023-02-13T02:40:08;20.02;;;6.63;;
69910;SDS011;63555;49.920;17.868;2023-02-13T02:45:20;23.87;;;7.93;;
69910;SDS011;63555;49.920;17.868;2023-02-13T02:55:41;29.58;;;8.68;;
69910;SDS011;63555;49.920;17.868;2023-02-13T03:00:48;24.93;;;8.30;;
69910;SDS011;63555;49.920;17.868;2023-02-13T03:06:16;25.77;;;7.55;;
69910;SDS011;63555;49.920;17.868;2023-02-13T03:11:21;26.13;;;8.67;;
69910;SDS011;63555;49.920;17.868;2023-02-13T03:16:40;23.13;;;8.43;;
69910;SDS011;63555;49.920;17.868;2023-02-13T03:22:05;24.13;;;8.23;;
69910;SDS011;63555;49.920;17.868;2023-02-13T03:33:14;16.30;;;5.53;;
69910;SDS011;63555;49.920;17.868;2023-02-13T03:38:26;24.13;;;5.80;;
69910;SDS011;63555;49.920;17.868;2023-02-13T03:49:03;10.63;;;3.70;;
69910;SDS011;63555;49.920;17.868;2023-02-13T03:54:26;12.27;;;4.13;;
69910;SDS011;63555;49.920;17.868;2023-02-13T03:59:50;8.73;;;3.80;;
69910;SDS011;63555;49.920;17.868;2023-02-13T04:10:16;11.38;;;3.13;;
69910;SDS011;63555;49.920;17.868;2023-02-13T04:20:27;6.93;;;2.38;;
69910;SDS011;63555;49.920;17.868;2023-02-13T04:25:28;6.47;;;2.15;;
69910;SDS011;63555;49.920;17.868;2023-02-13T04:30:28;8.30;;;3.10;;
69910;SDS011;63555;49.920;17.868;2023-02-13T04:35:29;8.48;;;3.55;;
69910;SDS011;63555;49.920;17.868;2023-02-13T04:40:29;8.83;;;3.47;;
69910;SDS011;63555;49.920;17.868;2023-02-13T04:45:30;13.80;;;4.27;;
69910;SDS011;63555;49.920;17.868;2023-02-13T04:50:30;9.43;;;3.60;;
69910;SDS011;63555;49.920;17.868;2023-02-13T04:55:30;11.57;;;4.37;;
69910;SDS011;63555;49.920;17.868;2023-02-13T05:00:31;12.40;;;3.53;;
69910;SDS011;63555;49.920;17.868;2023-02-13T05:05:31;12.03;;;3.87;;
69910;SDS011;63555;49.920;17.868;2023-02-13T05:10:32;14.03;;;4.43;;
69910;SDS011;63555;49.920;17.868;2023-02-13T05:15:32;11.23;;;4.33;;
69910;SDS011;63555;49.920;17.868;2023-02-13T05:20:33;10.13;;;3.57;;
69910;SDS011;63555;49.920;17.868;2023-02-13T05:25:34;7.87;;;3.27;;
69910;SDS011;63555;49.920;17.868;2023-02-13T05:30:35;12.70;;;3.75;;
69910;SDS011;63555;49.920;17.868;2023-02-13T05:35:38;11.50;;;4.00;;
69910;SDS011;63555;49.920;17.868;2023-02-13T05:40:38;14.15;;;5.28;;
69910;SDS011;63555;49.920;17.868;2023-02-13T05:45:38;13.13;;;5.53;;
69910;SDS011;63555;49.920;17.868;2023-02-13T05:50:39;10.23;;;4.50;;
69910;SDS011;63555;49.920;17.868;2023-02-13T05:55:39;23.67;;;7.97;;
69910;SDS011;63555;49.920;17.868;2023-02-13T06:00:39;17.90;;;5.87;;
69910;SDS011;63555;49.920;17.868;2023-02-13T06:05:40;14.17;;;5.43;;
69910;SDS011;63555;49.920;17.868;2023-02-13T06:10:40;18.00;;;6.17;;
69910;SDS011;63555;49.920;17.868;2023-02-13T06:15:40;14.67;;;5.90;;
69910;SDS011;63555;49.920;17.868;2023-02-13T06:20:41;14.77;;;4.37;;
69910;SDS011;63555;49.920;17.868;2023-02-13T06:25:41;13.23;;;4.60;;
69910;SDS011;63555;49.920;17.868;2023-02-13T06:30:41;14.40;;;4.10;;
69910;SDS011;63555;49.920;17.868;2023-02-13T06:35:42;12.30;;;3.97;;
69910;SDS011;63555;49.920;17.868;2023-02-13T06:40:42;15.37;;;4.47;;
69910;SDS011;63555;49.920;17.868;2023-02-13T06:45:43;15.30;;;6.67;;
69910;SDS011;63555;49.920;17.868;2023-02-13T06:50:45;15.53;;;6.30;;
69910;SDS011;63555;49.920;17.868;2023-02-13T06:55:46;16.63;;;7.00;;
69910;SDS011;63555;49.920;17.868;2023-02-13T07:00:46;18.97;;;6.50;;
69910;SDS011;63555;49.920;17.868;2023-02-13T07:05:46;20.17;;;7.43;;
69910;SDS011;63555;49.920;17.868;2023-02-13T07:10:50;16.27;;;6.78;;
69910;SDS011;63555;49.920;17.868;2023-02-13T07:15:51;16.83;;;6.73;;
69910;SDS011;63555;49.920;17.868;2023-02-13T07:20:51;16.92;;;6.72;;
69910;SDS011;63555;49.920;17.868;2023-02-13T07:25:51;20.13;;;6.13;;
69910;SDS011;63555;49.920;17.868;2023-02-13T07:30:52;19.17;;;7.17;;
69910;SDS011;63555;49.920;17.868;2023-02-13T07:35:52;14.70;;;5.53;;
69910;SDS011;63555;49.920;17.868;2023-02-13T07:40:53;14.37;;;5.43;;
69910;SDS011;63555;49.920;17.868;2023-02-13T07:45:53;13.87;;;5.30;;
69910;SDS011;63555;49.920;17.868;2023-02-13T07:51:01;11.63;;;4.50;;
69910;SDS011;63555;49.920;17.868;2023-02-13T07:56:05;15.73;;;5.13;;
69910;SDS011;63555;49.920;17.868;2023-02-13T08:01:07;11.70;;;4.77;;
69910;SDS011;63555;49.920;17.868;2023-02-13T08:06:08;16.35;;;5.25;;
69910;SDS011;63555;49.920;17.868;2023-02-13T08:11:20;14.87;;;6.03;;
69910;SDS011;63555;49.920;17.868;2023-02-13T08:16:47;13.30;;;5.15;;
69910;SDS011;63555;49.920;17.868;2023-02-13T08:21:47;11.60;;;5.27;;
69910;SDS011;63555;49.920;17.868;2023-02-13T08:26:48;12.43;;;5.43;;
69910;SDS011;63555;49.920;17.868;2023-02-13T08:31:48;10.27;;;4.77;;
69910;SDS011;63555;49.920;17.868;2023-02-13T08:36:48;11.03;;;4.10;;
69910;SDS011;63555;49.920;17.868;2023-02-13T08:41:49;10.40;;;3.70;;
69910;SDS011;63555;49.920;17.868;2023-02-13T08:46:49;8.67;;;3.13;;
69910;SDS011;63555;49.920;17.868;2023-02-13T08:51:50;8.63;;;3.60;;
69910;SDS011;63555;49.920;17.868;2023-02-13T08:56:50;8.27;;;3.00;;
69910;SDS011;63555;49.920;17.868;2023-02-13T09:01:50;8.37;;;3.00;;
69910;SDS011;63555;49.920;17.868;2023-02-13T09:06:51;11.33;;;3.27;;
69910;SDS011;63555;49.920;17.868;2023-02-13T09:11:51;7.80;;;3.00;;
69910;SDS011;63555;49.920;17.868;2023-02-13T09:16:52;7.50;;;3.15;;
69910;SDS011;63555;49.920;17.868;2023-02-13T09:21:54;8.55;;;4.00;;
69910;SDS011;63555;49.920;17.868;2023-02-13T09:26:55;9.17;;;3.33;;
69910;SDS011;63555;49.920;17.868;2023-02-13T09:31:55;9.23;;;4.00;;
69910;SDS011;63555;49.920;17.868;2023-02-13T09:36:56;16.80;;;4.03;;
69910;SDS011;63555;49.920;17.868;2023-02-13T09:41:56;10.87;;;4.00;;
69910;SDS011;63555;49.920;17.868;2023-02-13T09:52:19;12.00;;;3.90;;
69910;SDS011;63555;49.920;17.868;2023-02-13T09:57:24;8.97;;;3.57;;
69910;SDS011;63555;49.920;17.868;2023-02-13T10:08:31;15.13;;;5.97;;
69910;SDS011;63555;49.920;17.868;2023-02-13T10:19:18;5.20;;;2.35;;
69910;SDS011;63555;49.920;17.868;2023-02-13T10:24:29;6.97;;;2.30;;
69910;SDS011;63555;49.920;17.868;2023-02-13T10:29:35;5.65;;;2.88;;
69910;SDS011;63555;49.920;17.868;2023-02-13T10:35:00;6.57;;;2.47;;
69910;SDS011;63555;49.920;17.868;2023-02-13T10:40:04;7.07;;;2.80;;
69910;SDS011;63555;49.920;17.868;2023-02-13T10:50:28;5.33;;;1.90;;
69910;SDS011;63555;49.920;17.868;2023-02-13T11:01:12;6.68;;;2.50;;
69910;SDS011;63555;49.920;17.868;2023-02-13T11:06:19;7.53;;;3.23;;
69910;SDS011;63555;49.920;17.868;2023-02-13T11:11:27;9.10;;;3.50;;
69910;SDS011;63555;49.920;17.868;2023-02-13T11:16:52;9.70;;;3.70;;
69910;SDS011;63555;49.920;17.868;2023-02-13T11:21:57;9.10;;;3.85;;
69910;SDS011;63555;49.920;17.868;2023-02-13T11:27:03;7.03;;;2.60;;
69910;SDS011;63555;49.920;17.868;2023-02-13T11:37:16;5.70;;;2.40;;
69910;SDS011;63555;49.920;17.868;2023-02-13T11:42:19;6.20;;;2.33;;
69910;SDS011;63555;49.920;17.868;2023-02-13T11:47:36;5.43;;;2.40;;
69910;SDS011;63555;49.920;17.868;2023-02-13T11:52:39;7.47;;;2.60;;
69910;SDS011;63555;49.920;17.868;2023-02-13T11:57:40;11.02;;;3.75;;
69910;SDS011;63555;49.920;17.868;2023-02-13T12:02:47;8.90;;;3.33;;
69910;SDS011;63555;49.920;17.868;2023-02-13T12:07:51;6.18;;;2.42;;
69910;SDS011;63555;49.920;17.868;2023-02-13T12:13:19;5.40;;;2.20;;
69910;SDS011;63555;49.920;17.868;2023-02-13T12:18:31;5.30;;;2.17;;
69910;SDS011;63555;49.920;17.868;2023-02-13T12:28:58;4.95;;;2.10;;
69910;SDS011;63555;49.920;17.868;2023-02-13T12:39:35;6.07;;;2.30;;
69910;SDS011;63555;49.920;17.868;2023-02-13T12:50:12;25.70;;;11.80;;
69910;SDS011;63555;49.920;17.868;2023-02-13T13:11:34;11.10;;;4.85;;
69910;SDS011;63555;49.920;17.868;2023-02-13T13:21:59;20.10;;;8.82;;
69910;SDS011;63555;49.920;17.868;2023-02-13T13:27:16;11.43;;;6.57;;
69910;SDS011;63555;49.920;17.868;2023-02-13T13:32:21;13.60;;;5.60;;
69910;SDS011;63555;49.920;17.868;2023-02-13T13:37:34;9.82;;;4.72;;
69910;SDS011;63555;49.920;17.868;2023-02-13T13:54:16;9.13;;;3.83;;
69910;SDS011;63555;49.920;17.868;2023-02-13T14:25:40;6.90;;;2.77;;
69910;SDS011;63555;49.920;17.868;2023-02-13T14:30:41;7.03;;;2.90;;
69910;SDS011;63555;49.920;17.868;2023-02-13T14:35:41;8.93;;;3.50;;
69910;SDS011;63555;49.920;17.868;2023-02-13T14:45:52;9.27;;;3.90;;
69910;SDS011;63555;49.920;17.868;2023-02-13T14:50:55;8.23;;;3.90;;
69910;SDS011;63555;49.920;17.868;2023-02-13T14:55:57;9.40;;;4.25;;
69910;SDS011;63555;49.920;17.868;2023-02-13T15:01:22;9.65;;;4.32;;
69910;SDS011;63555;49.920;17.868;2023-02-13T15:06:37;7.57;;;3.30;;
69910;SDS011;63555;49.920;17.868;2023-02-13T15:11:41;6.18;;;2.72;;
69910;SDS011;63555;49.920;17.868;2023-02-13T15:16:42;8.57;;;2.70;;
69910;SDS011;63555;49.920;17.868;2023-02-13T15:21:55;5.93;;;2.50;;
69910;SDS011;63555;49.920;17.868;2023-02-13T15:27:01;6.53;;;2.70;;
69910;SDS011;63555;49.920;17.868;2023-02-13T15:32:16;5.67;;;2.60;;
69910;SDS011;63555;49.920;17.868;2023-02-13T15:37:21;6.88;;;3.25;;
69910;SDS011;63555;49.920;17.868;2023-02-13T15:42:23;7.73;;;3.63;;
69910;SDS011;63555;49.920;17.868;2023-02-13T15:47:28;9.88;;;4.28;;
69910;SDS011;63555;49.920;17.868;2023-02-13T15:52:31;8.30;;;4.50;;
69910;SDS011;63555;49.920;17.868;2023-02-13T15:57:35;10.80;;;5.35;;
69910;SDS011;63555;49.920;17.868;2023-02-13T16:02:39;9.97;;;4.23;;
69910;SDS011;63555;49.920;17.868;2023-02-13T16:07:46;12.02;;;4.85;;
69910;SDS011;63555;49.920;17.868;2023-02-13T16:12:49;12.63;;;7.18;;
69910;SDS011;63555;49.920;17.868;2023-02-13T16:17:50;38.43;;;13.03;;
69910;SDS011;63555;49.920;17.868;2023-02-13T16:22:54;14.03;;;6.60;;
69910;SDS011;63555;49.920;17.868;2023-02-13T16:28:03;12.05;;;6.07;;
69910;SDS011;63555;49.920;17.868;2023-02-13T16:38:49;14.17;;;6.37;;
69910;SDS011;63555;49.920;17.868;2023-02-13T16:48:56;15.63;;;7.03;;
69910;SDS011;63555;49.920;17.868;2023-02-13T16:54:22;16.48;;;7.70;;
69910;SDS011;63555;49.920;17.868;2023-02-13T16:59:28;33.78;;;13.93;;
69910;SDS011;63555;49.920;17.868;2023-02-13T17:04:32;28.98;;;13.82;;
69910;SDS011;63555;49.920;17.868;2023-02-13T17:09:32;32.67;;;14.10;;
69910;SDS011;63555;49.920;17.868;2023-02-13T17:14:33;31.40;;;12.50;;
69910;SDS011;63555;49.920;17.868;2023-02-13T17:19:34;40.93;;;15.43;;
69910;SDS011;63555;49.920;17.868;2023-02-13T17:24:37;46.53;;;17.80;;
69910;SDS011;63555;49.920;17.868;2023-02-13T17:29:37;48.63;;;18.13;;
69910;SDS011;63555;49.920;17.868;2023-02-13T17:34:37;44.07;;;16.97;;
69910;SDS011;63555;49.920;17.868;2023-02-13T17:39:38;31.50;;;13.97;;
69910;SDS011;63555;49.920;17.868;2023-02-13T17:44:39;23.45;;;10.80;;
69910;SDS011;63555;49.920;17.868;2023-02-13T17:49:39;24.83;;;11.77;;
69910;SDS011;63555;49.920;17.868;2023-02-13T17:54:40;27.30;;;11.43;;
69910;SDS011;63555;49.920;17.868;2023-02-13T17:59:41;32.30;;;13.57;;
69910;SDS011;63555;49.920;17.868;2023-02-13T18:04:42;32.45;;;13.80;;
69910;SDS011;63555;49.920;17.868;2023-02-13T18:09:43;34.97;;;16.57;;
69910;SDS011;63555;49.920;17.868;2023-02-13T18:14:45;88.68;;;31.73;;
69910;SDS011;63555;49.920;17.868;2023-02-13T18:19:46;89.72;;;33.20;;
69910;SDS011;63555;49.920;17.868;2023-02-13T18:24:47;94.82;;;34.70;;
69910;SDS011;63555;49.920;17.868;2023-02-13T18:29:47;25.17;;;10.73;;
69910;SDS011;63555;49.920;17.868;2023-02-13T18:34:48;18.67;;;8.67;;
69910;SDS011;63555;49.920;17.868;2023-02-13T18:39:49;23.92;;;10.48;;
69910;SDS011;63555;49.920;17.868;2023-02-13T18:44:50;22.33;;;10.67;;
69910;SDS011;63555;49.920;17.868;2023-02-13T18:49:50;18.00;;;9.40;;
69910;SDS011;63555;49.920;17.868;2023-02-13T18:54:52;19.95;;;9.50;;
69910;SDS011;63555;49.920;17.868;2023-02-13T18:59:53;29.50;;;13.77;;
69910;SDS011;63555;49.920;17.868;2023-02-13T19:04:53;38.90;;;15.63;;
69910;SDS011;63555;49.920;17.868;2023-02-13T19:09:54;34.63;;;14.30;;
69910;SDS011;63555;49.920;17.868;2023-02-13T19:14:54;35.50;;;16.17;;
69910;SDS011;63555;49.920;17.868;2023-02-13T19:19:55;41.60;;;17.17;;
69910;SDS011;63555;49.920;17.868;2023-02-13T19:24:55;36.57;;;15.67;;
69910;SDS011;63555;49.920;17.868;2023-02-13T19:29:57;37.73;;;15.80;;
69910;SDS011;63555;49.920;17.868;2023-02-13T19:34:57;40.28;;;18.35;;
69910;SDS011;63555;49.920;17.868;2023-02-13T19:39:57;36.93;;;17.30;;
69910;SDS011;63555;49.920;17.868;2023-02-13T19:44:58;42.07;;;18.10;;
69910;SDS011;63555;49.920;17.868;2023-02-13T19:49:58;49.07;;;20.63;;
69910;SDS011;63555;49.920;17.868;2023-02-13T19:54:58;49.83;;;21.83;;
69910;SDS011;63555;49.920;17.868;2023-02-13T19:59:59;61.07;;;24.60;;
69910;SDS011;63555;49.920;17.868;2023-02-13T20:05:01;65.87;;;27.83;;
69910;SDS011;63555;49.920;17.868;2023-02-13T20:10:06;60.08;;;26.65;;
69910;SDS011;63555;49.920;17.868;2023-02-13T20:15:08;60.85;;;26.35;;
69910;SDS011;63555;49.920;17.868;2023-02-13T20:20:09;63.45;;;29.73;;
69910;SDS011;63555;49.920;17.868;2023-02-13T20:25:10;57.17;;;25.63;;
69910;SDS011;63555;49.920;17.868;2023-02-13T20:30:12;59.20;;;26.63;;
69910;SDS011;63555;49.920;17.868;2023-02-13T20:35:13;64.13;;;27.33;;
69910;SDS011;63555;49.920;17.868;2023-02-13T20:40:14;55.70;;;25.57;;
69910;SDS011;63555;49.920;17.868;2023-02-13T20:45:15;37.33;;;20.47;;
69910;SDS011;63555;49.920;17.868;2023-02-13T20:50:16;32.97;;;16.17;;
69910;SDS011;63555;49.920;17.868;2023-02-13T20:55:16;33.97;;;16.87;;
69910;SDS011;63555;49.920;17.868;2023-02-13T21:00:17;40.13;;;18.08;;
69910;SDS011;63555;49.920;17.868;2023-02-13T21:05:17;40.10;;;17.38;;
69910;SDS011;63555;49.920;17.868;2023-02-13T21:10:17;40.87;;;17.67;;
69910;SDS011;63555;49.920;17.868;2023-02-13T21:15:18;37.65;;;17.00;;
69910;SDS011;63555;49.920;17.868;2023-02-13T21:20:19;36.90;;;18.00;;
69910;SDS011;63555;49.920;17.868;2023-02-13T21:25:19;46.13;;;17.93;;
69910;SDS011;63555;49.920;17.868;2023-02-13T21:30:20;41.33;;;18.47;;
69910;SDS011;63555;49.920;17.868;2023-02-13T21:35:20;41.57;;;19.77;;
69910;SDS011;63555;49.920;17.868;2023-02-13T21:40:21;40.70;;;19.23;;
69910;SDS011;63555;49.920;17.868;2023-02-13T21:45:21;43.90;;;19.47;;
69910;SDS011;63555;49.920;17.868;2023-02-13T21:50:21;39.20;;;18.40;;
69910;SDS011;63555;49.920;17.868;2023-02-13T21:55:22;43.30;;;19.52;;
69910;SDS011;63555;49.920;17.868;2023-02-13T22:00:23;46.90;;;18.77;;
69910;SDS011;63555;49.920;17.868;2023-02-13T22:05:23;42.77;;;18.30;;
69910;SDS011;63555;49.920;17.868;2023-02-13T22:10:24;40.53;;;17.10;;
69910;SDS011;63555;49.920;17.868;2023-02-13T22:15:25;32.77;;;14.53;;
69910;SDS011;63555;49.920;17.868;2023-02-13T22:20:25;32.87;;;13.77;;
69910;SDS011;63555;49.920;17.868;2023-02-13T22:25:25;33.03;;;13.17;;
69910;SDS011;63555;49.920;17.868;2023-02-13T22:30:26;28.53;;;12.40;;
69910;SDS011;63555;49.920;17.868;2023-02-13T22:35:26;28.80;;;13.50;;
69910;SDS011;63555;49.920;17.868;2023-02-13T22:40:26;32.70;;;14.20;;
69910;SDS011;63555;49.920;17.868;2023-02-13T22:45:27;36.47;;;15.87;;
69910;SDS011;63555;49.920;17.868;2023-02-13T22:50:27;38.47;;;16.23;;
69910;SDS011;63555;49.920;17.868;2023-02-13T22:55:28;31.57;;;13.40;;
69910;SDS011;63555;49.920;17.868;2023-02-13T23:00:28;31.33;;;14.13;;
69910;SDS011;63555;49.920;17.868;2023-02-13T23:05:28;34.27;;;13.20;;
69910;SDS011;63555;49.920;17.868;2023-02-13T23:10:29;31.70;;;13.80;;
69910;SDS011;63555;49.920;17.868;2023-02-13T23:15:30;32.67;;;13.57;;
69910;SDS011;63555;49.920;17.868;2023-02-13T23:20:30;26.90;;;11.83;;
69910;SDS011;63555;49.920;17.868;2023-02-13T23:25:31;33.37;;;14.83;;
69910;SDS011;63555;49.920;17.868;2023-02-13T23:30:31;38.60;;;17.03;;
69910;SDS011;63555;49.920;17.868;2023-02-13T23:35:32;39.28;;;16.67;;
69910;SDS011;63555;49.920;17.868;2023-02-13T23:40:32;27.67;;;12.40;;
69910;SDS011;63555;49.920;17.868;2023-02-13T23:45:33;26.17;;;11.60;;
69910;SDS011;63555;49.920;17.868;2023-02-13T23:50:33;28.38;;;10.75;;
69910;SDS011;63555;49.920;17.868;2023-02-13T23:55:34;24.77;;;8.80;;
